createdAt,value
2023-05-06T00:01:20.492Z,15.81
2023-05-06T00:03:48.049Z,15.84
2023-05-06T00:06:15.277Z,15.77
2023-05-06T00:08:42.195Z,15.53
2023-05-06T00:11:09.075Z,15.33
2023-05-06T00:13:36.071Z,15.27
2023-05-06T00:16:02.917Z,15.27
2023-05-06T00:18:29.792Z,15.40
2023-05-06T00:20:56.848Z,15.29
2023-05-06T00:23:23.663Z,15.20
2023-05-06T00:25:50.665Z,15.33
2023-05-06T00:28:17.478Z,14.88
2023-05-06T00:30:44.367Z,15.09
2023-05-06T00:33:11.315Z,15.19
2023-05-06T00:35:38.195Z,15.35
2023-05-06T00:38:10.067Z,15.30
2023-05-06T00:40:37.260Z,15.37
2023-05-06T00:43:04.437Z,15.18
2023-05-06T00:45:31.836Z,15.11
2023-05-06T00:47:59.439Z,14.96
2023-05-06T00:50:31.411Z,14.97
2023-05-06T00:52:59.559Z,14.99
2023-05-06T00:55:27.511Z,14.96
2023-05-06T00:57:54.990Z,14.84
2023-05-06T01:00:21.955Z,14.91
2023-05-06T01:02:49.671Z,14.93
2023-05-06T01:05:18.412Z,14.97
2023-05-06T01:08:11.245Z,14.93
2023-05-06T01:10:53.777Z,14.62
2023-05-06T01:13:45.568Z,14.56
2023-05-06T01:16:14.662Z,14.79
2023-05-06T01:18:43.752Z,14.89
2023-05-06T01:21:12.916Z,14.51
2023-05-06T01:23:52.739Z,14.51
2023-05-06T01:26:19.473Z,14.31
2023-05-06T01:28:46.281Z,14.31
2023-05-06T01:31:17.523Z,14.44
2023-05-06T01:33:54.404Z,14.46
2023-05-06T01:37:02.767Z,14.50
2023-05-06T01:39:32.291Z,14.62
2023-05-06T01:42:02.403Z,14.52
2023-05-06T01:44:33.639Z,14.58
2023-05-06T01:47:01.642Z,14.65
2023-05-06T01:49:30.112Z,14.06
2023-05-06T01:51:58.082Z,14.46
2023-05-06T01:54:24.946Z,14.44
2023-05-06T01:56:51.748Z,14.56
2023-05-06T01:59:18.592Z,14.60
2023-05-06T02:01:45.667Z,14.46
2023-05-06T02:04:12.523Z,14.34
2023-05-06T02:06:39.365Z,14.20
2023-05-06T02:09:06.467Z,14.25
2023-05-06T02:11:33.301Z,14.18
2023-05-06T02:14:00.214Z,14.20
2023-05-06T02:16:29.874Z,13.89
2023-05-06T02:18:56.769Z,14.08
2023-05-06T02:21:24.044Z,14.18
2023-05-06T02:23:50.988Z,14.12
2023-05-06T02:26:17.853Z,14.10
2023-05-06T02:28:44.718Z,14.15
2023-05-06T02:31:17.829Z,14.17
2023-05-06T02:33:46.098Z,14.16
2023-05-06T02:36:12.935Z,14.24
2023-05-06T02:38:39.762Z,14.23
2023-05-06T02:41:06.655Z,14.01
2023-05-06T02:43:33.540Z,14.13
2023-05-06T02:46:00.497Z,14.19
2023-05-06T02:48:27.407Z,14.24
2023-05-06T02:50:54.259Z,14.15
2023-05-06T02:53:21.202Z,14.20
2023-05-06T02:55:48.081Z,14.05
2023-05-06T02:58:14.882Z,14.09
2023-05-06T03:00:41.705Z,13.98
2023-05-06T03:03:10.129Z,13.98
2023-05-06T03:05:36.986Z,13.98
2023-05-06T03:08:04.073Z,13.84
2023-05-06T03:10:31.129Z,13.89
2023-05-06T03:12:57.944Z,14.01
2023-05-06T03:15:24.851Z,13.86
2023-05-06T03:17:51.874Z,13.89
2023-05-06T03:20:19.003Z,13.91
2023-05-06T03:22:45.926Z,13.70
2023-05-06T03:25:12.879Z,13.79
2023-05-06T03:27:39.768Z,13.85
2023-05-06T03:30:07.172Z,13.75
2023-05-06T03:32:34.275Z,13.76
2023-05-06T03:35:01.097Z,13.81
2023-05-06T03:37:27.900Z,13.62
2023-05-06T03:39:54.727Z,13.56
2023-05-06T03:42:21.800Z,13.52
2023-05-06T03:44:48.610Z,13.64
2023-05-06T03:47:15.540Z,13.94
2023-05-06T03:49:42.345Z,13.90
2023-05-06T03:52:10.633Z,13.69
2023-05-06T03:54:37.478Z,13.48
2023-05-06T03:57:04.378Z,13.34
2023-05-06T03:59:31.299Z,13.17
2023-05-06T04:01:58.144Z,13.28
2023-05-06T04:04:27.466Z,13.21
2023-05-06T04:06:54.416Z,13.40
2023-05-06T04:09:21.199Z,13.11
2023-05-06T04:11:48.000Z,13.14
2023-05-06T04:14:14.828Z,13.33
2023-05-06T04:16:41.783Z,13.28
2023-05-06T04:19:09.410Z,13.72
2023-05-06T04:21:36.229Z,13.74
2023-05-06T04:24:03.098Z,13.82
2023-05-06T04:26:29.921Z,13.89
2023-05-06T04:28:56.727Z,14.36
2023-05-06T04:31:24.188Z,14.92
2023-05-06T04:33:51.046Z,15.41
2023-05-06T04:36:19.061Z,16.28
2023-05-06T04:38:47.441Z,16.85
2023-05-06T04:41:14.398Z,17.61
2023-05-06T04:43:41.790Z,17.73
2023-05-06T04:46:08.727Z,17.70
2023-05-06T04:48:35.643Z,17.46
2023-05-06T04:51:04.535Z,17.86
2023-05-06T04:53:31.974Z,17.83
2023-05-06T04:55:58.807Z,18.06
2023-05-06T04:58:25.731Z,18.07
2023-05-06T05:00:52.552Z,17.88
2023-05-06T05:03:19.533Z,18.00
2023-05-06T05:05:46.596Z,18.38
2023-05-06T05:08:13.611Z,18.87
2023-05-06T05:10:43.820Z,18.95
2023-05-06T05:13:10.716Z,19.32
2023-05-06T05:15:40.669Z,19.61
2023-05-06T05:18:07.564Z,19.39
2023-05-06T05:20:34.636Z,19.22
2023-05-06T05:23:01.648Z,19.04
2023-05-06T05:25:28.648Z,19.34
2023-05-06T05:27:55.503Z,19.55
2023-05-06T05:30:22.382Z,19.62
2023-05-06T05:32:49.298Z,19.74
2023-05-06T05:35:16.352Z,19.55
2023-05-06T05:37:43.197Z,19.45
2023-05-06T05:40:10.307Z,19.18
2023-05-06T05:42:37.160Z,19.14
2023-05-06T05:45:04.299Z,19.40
2023-05-06T05:47:31.154Z,19.28
2023-05-06T05:49:58.045Z,19.45
2023-05-06T05:52:24.924Z,19.61
2023-05-06T05:54:51.880Z,19.62
2023-05-06T05:57:18.766Z,19.90
2023-05-06T05:59:45.647Z,19.95
2023-05-06T06:02:12.636Z,19.78
2023-05-06T06:04:39.508Z,19.70
2023-05-06T06:07:06.663Z,19.98
2023-05-06T06:09:34.740Z,18.93
2023-05-06T06:12:02.190Z,18.75
2023-05-06T06:14:29.036Z,19.05
2023-05-06T06:16:55.904Z,19.14
2023-05-06T06:19:22.787Z,18.71
2023-05-06T06:21:49.725Z,19.37
2023-05-06T06:24:16.565Z,19.77
2023-05-06T06:26:43.442Z,20.04
2023-05-06T06:29:10.330Z,20.67
2023-05-06T06:31:39.763Z,20.88
2023-05-06T06:34:09.131Z,21.05
2023-05-06T06:36:36.007Z,21.07
2023-05-06T06:39:02.848Z,21.03
2023-05-06T06:41:29.677Z,21.61
2023-05-06T06:43:56.600Z,22.10
2023-05-06T06:46:23.726Z,22.62
2023-05-06T06:48:50.723Z,22.41
2023-05-06T06:51:17.574Z,22.26
2023-05-06T06:53:44.394Z,22.13
2023-05-06T06:56:14.700Z,22.77
2023-05-06T06:58:41.785Z,22.38
2023-05-06T07:01:09.005Z,22.10
2023-05-06T07:03:35.968Z,21.92
2023-05-06T07:06:02.926Z,21.85
2023-05-06T07:08:30.058Z,22.60
2023-05-06T07:10:56.951Z,22.70
2023-05-06T07:13:23.857Z,23.20
2023-05-06T07:15:50.750Z,22.93
2023-05-06T07:18:17.654Z,23.08
2023-05-06T07:20:44.620Z,23.69
2023-05-06T07:23:11.521Z,23.55
2023-05-06T07:25:38.407Z,23.54
2023-05-06T07:28:05.953Z,23.09
2023-05-06T07:30:32.781Z,23.64
2023-05-06T07:32:59.759Z,23.63
2023-05-06T07:35:26.691Z,23.30
2023-05-06T07:37:53.547Z,23.55
2023-05-06T07:40:20.361Z,23.28
2023-05-06T07:42:47.214Z,23.36
2023-05-06T07:45:15.364Z,24.04
2023-05-06T07:47:42.329Z,24.12
2023-05-06T07:50:10.749Z,24.73
2023-05-06T07:52:37.544Z,25.26
2023-05-06T07:55:05.376Z,24.28
2023-05-06T07:57:32.219Z,23.98
2023-05-06T07:59:59.030Z,24.07
2023-05-06T08:02:27.330Z,25.19
2023-05-06T08:04:54.322Z,24.40
2023-05-06T08:07:21.470Z,24.92
2023-05-06T08:09:48.382Z,25.50
2023-05-06T08:12:16.307Z,25.46
2023-05-06T08:14:43.201Z,25.34
2023-05-06T08:17:10.155Z,25.72
2023-05-06T08:19:37.015Z,26.68
2023-05-06T08:22:03.827Z,27.47
2023-05-06T08:24:30.673Z,28.17
2023-05-06T08:26:57.625Z,28.52
2023-05-06T08:29:24.463Z,27.78
2023-05-06T08:31:51.351Z,28.03
2023-05-06T08:34:20.387Z,27.33
2023-05-06T08:36:48.667Z,27.10
2023-05-06T08:39:15.721Z,26.76
2023-05-06T08:41:48.662Z,26.46
2023-05-06T08:44:18.808Z,26.34
2023-05-06T08:46:47.070Z,26.18
2023-05-06T08:49:14.097Z,26.89
2023-05-06T08:51:43.955Z,27.44
2023-05-06T08:54:13.878Z,27.79
2023-05-06T08:56:47.611Z,27.44
2023-05-06T08:59:14.570Z,27.70
2023-05-06T09:01:41.613Z,26.50
2023-05-06T09:04:09.400Z,27.40
2023-05-06T09:06:36.551Z,28.57
2023-05-06T09:09:03.761Z,29.33
2023-05-06T09:11:31.044Z,29.88
2023-05-06T09:14:17.975Z,30.07
2023-05-06T09:16:50.394Z,30.61
2023-05-06T09:19:19.212Z,30.89
2023-05-06T09:21:48.500Z,30.96
2023-05-06T09:24:16.187Z,31.04
2023-05-06T09:26:43.739Z,31.39
2023-05-06T09:29:10.871Z,31.39
2023-05-06T09:31:41.966Z,31.66
2023-05-06T09:34:08.692Z,32.04
2023-05-06T09:39:44.670Z,32.41
2023-05-06T09:42:11.604Z,30.85
2023-05-06T09:44:38.322Z,31.75
2023-05-06T09:47:05.455Z,32.40
2023-05-06T09:49:32.146Z,32.94
2023-05-06T09:51:59.244Z,33.00
2023-05-06T09:54:27.085Z,32.27
2023-05-06T09:56:55.525Z,32.41
2023-05-06T09:59:22.885Z,33.43
2023-05-06T10:01:49.742Z,33.89
2023-05-06T10:04:18.202Z,33.91
2023-05-06T10:06:48.097Z,33.19
2023-05-06T10:09:15.236Z,33.69
2023-05-06T10:11:42.399Z,33.59
2023-05-06T10:14:09.946Z,33.99
2023-05-06T10:16:37.632Z,33.38
2023-05-06T10:19:06.853Z,32.74
2023-05-06T10:21:36.149Z,33.12
2023-05-06T10:24:07.450Z,33.16
2023-05-06T10:26:36.497Z,33.45
2023-05-06T10:29:04.994Z,33.16
2023-05-06T10:31:32.979Z,33.88
2023-05-06T10:34:03.165Z,34.01
2023-05-06T10:36:32.289Z,34.18
2023-05-06T10:39:01.815Z,34.05
2023-05-06T10:41:29.344Z,33.82
2023-05-06T10:43:57.217Z,32.35
2023-05-06T10:46:24.860Z,30.20
2023-05-06T10:49:04.664Z,31.21
2023-05-06T10:51:31.956Z,31.12
2023-05-06T10:53:58.646Z,30.84
2023-05-06T10:56:25.868Z,31.12
2023-05-06T10:58:54.054Z,31.45
2023-05-06T11:01:26.763Z,31.93
2023-05-06T11:03:53.762Z,31.59
2023-05-06T11:06:35.802Z,30.23
2023-05-06T11:09:04.514Z,30.26
2023-05-06T11:11:47.240Z,30.98
2023-05-06T11:14:14.582Z,31.28
2023-05-06T11:16:48.768Z,31.62
2023-05-06T11:19:29.301Z,32.01
2023-05-06T11:21:57.685Z,32.48
2023-05-06T11:24:39.549Z,32.29
2023-05-06T11:27:07.203Z,32.73
2023-05-06T11:29:34.020Z,33.06
2023-05-06T11:32:00.855Z,33.16
2023-05-06T11:34:31.230Z,32.57
2023-05-06T11:36:58.751Z,33.50
2023-05-06T11:39:30.718Z,33.07
2023-05-06T11:42:02.744Z,33.32
2023-05-06T11:44:30.815Z,33.47
2023-05-06T11:46:58.348Z,32.09
2023-05-06T11:49:25.833Z,32.78
2023-05-06T11:51:52.917Z,33.37
2023-05-06T11:54:22.747Z,33.95
2023-05-06T11:56:52.657Z,33.98
2023-05-06T11:59:28.172Z,34.66
2023-05-06T12:01:56.557Z,34.92
2023-05-06T12:04:23.230Z,34.28
2023-05-06T12:06:50.129Z,34.46
2023-05-06T12:09:17.069Z,34.94
2023-05-06T12:11:44.959Z,34.70
2023-05-06T12:14:12.510Z,33.82
2023-05-06T12:16:39.372Z,32.93
2023-05-06T12:19:06.224Z,33.49
2023-05-06T12:21:33.266Z,33.41
2023-05-06T12:24:01.365Z,33.84
2023-05-06T12:26:28.311Z,33.68
2023-05-06T12:29:21.083Z,32.88
2023-05-06T12:31:48.374Z,33.87
2023-05-06T12:34:16.340Z,33.77
2023-05-06T12:36:44.607Z,32.10
2023-05-06T12:39:14.704Z,30.62
2023-05-06T12:41:45.024Z,31.74
2023-05-06T12:44:33.553Z,31.03
2023-05-06T12:47:01.394Z,31.56
2023-05-06T12:49:28.388Z,31.72
2023-05-06T12:52:10.666Z,31.99
2023-05-06T12:54:37.513Z,32.43
2023-05-06T12:57:04.706Z,30.68
2023-05-06T12:59:31.875Z,30.48
2023-05-06T13:01:59.207Z,31.03
2023-05-06T13:04:26.276Z,31.31
2023-05-06T13:06:53.080Z,31.83
2023-05-06T13:09:19.835Z,32.29
2023-05-06T13:11:46.599Z,32.62
2023-05-06T13:14:13.906Z,32.85
2023-05-06T13:16:42.282Z,32.74
2023-05-06T13:19:21.131Z,32.81
2023-05-06T13:21:51.918Z,32.91
2023-05-06T13:24:18.545Z,32.46
2023-05-06T13:26:45.289Z,32.59
2023-05-06T13:29:11.996Z,32.89
2023-05-06T13:31:38.939Z,33.44
2023-05-06T13:34:06.075Z,33.58
2023-05-06T13:36:32.792Z,33.78
2023-05-06T13:38:59.517Z,33.55
2023-05-06T13:41:26.168Z,32.44
2023-05-06T13:43:52.864Z,32.31
2023-05-06T13:46:19.657Z,31.62
2023-05-06T13:48:46.356Z,32.21
2023-05-06T13:51:13.060Z,32.25
2023-05-06T13:53:39.752Z,31.77
2023-05-06T13:56:06.555Z,32.16
2023-05-06T13:58:33.561Z,31.77
2023-05-06T14:01:00.234Z,31.45
2023-05-06T14:03:27.097Z,30.84
2023-05-06T14:05:53.824Z,30.40
2023-05-06T14:08:20.485Z,30.94
2023-05-06T14:10:47.240Z,31.60
2023-05-06T14:13:13.937Z,30.19
2023-05-06T14:15:40.661Z,30.31
2023-05-06T14:18:07.347Z,31.01
2023-05-06T14:20:34.134Z,31.13
2023-05-06T14:23:00.815Z,31.26
2023-05-06T14:25:28.165Z,31.94
2023-05-06T14:27:55.361Z,32.21
2023-05-06T14:30:22.166Z,31.29
2023-05-06T14:32:49.059Z,32.17
2023-05-06T14:35:15.925Z,32.51
2023-05-06T14:37:42.651Z,32.88
2023-05-06T14:40:10.253Z,33.07
2023-05-06T14:42:37.195Z,33.13
2023-05-06T14:45:04.198Z,33.51
2023-05-06T14:47:30.946Z,33.23
2023-05-06T14:49:57.640Z,33.33
2023-05-06T14:52:24.358Z,33.41
2023-05-06T14:54:51.024Z,33.50
2023-05-06T14:57:17.743Z,33.53
2023-05-06T14:59:44.393Z,33.62
2023-05-06T15:02:11.309Z,33.72
2023-05-06T15:04:38.024Z,33.41
2023-05-06T15:07:04.699Z,33.12
2023-05-06T15:09:31.527Z,32.87
2023-05-06T15:11:58.278Z,32.75
2023-05-06T15:14:24.949Z,32.48
2023-05-06T15:16:52.886Z,32.76
2023-05-06T15:19:19.621Z,32.22
2023-05-06T15:21:46.601Z,31.29
2023-05-06T15:24:13.291Z,30.48
2023-05-06T15:26:39.978Z,30.16
2023-05-06T15:29:07.468Z,29.94
2023-05-06T15:31:39.113Z,29.95
2023-05-06T15:34:06.617Z,29.89
2023-05-06T15:36:33.284Z,29.97
2023-05-06T15:39:01.018Z,29.86
2023-05-06T15:41:32.017Z,29.96
2023-05-06T15:43:59.369Z,29.61
2023-05-06T15:46:26.916Z,29.19
2023-05-06T15:49:09.025Z,29.28
2023-05-06T15:51:40.478Z,29.37
2023-05-06T15:54:07.133Z,29.24
2023-05-06T15:56:39.372Z,28.96
2023-05-06T15:59:08.498Z,29.12
2023-05-06T16:02:04.871Z,29.31
2023-05-06T16:04:22.119Z,29.27
2023-05-06T16:06:49.098Z,29.02
2023-05-06T16:09:15.848Z,29.33
2023-05-06T16:11:42.532Z,29.38
2023-05-06T16:14:09.187Z,29.53
2023-05-06T16:16:36.037Z,29.43
2023-05-06T16:19:02.837Z,29.55
2023-05-06T16:21:29.522Z,29.60
2023-05-06T16:23:56.174Z,29.64
2023-05-06T16:26:23.025Z,29.69
2023-05-06T16:28:49.680Z,29.76
2023-05-06T16:31:16.405Z,29.84
2023-05-06T16:33:43.153Z,29.90
2023-05-06T16:36:09.833Z,29.59
2023-05-06T16:38:36.671Z,29.50
2023-05-06T16:41:03.514Z,29.42
2023-05-06T16:43:30.192Z,29.20
2023-05-06T16:45:56.868Z,28.89
2023-05-06T16:48:23.608Z,27.77
2023-05-06T16:50:50.315Z,27.74
2023-05-06T16:53:17.693Z,27.30
2023-05-06T16:55:49.222Z,27.55
2023-05-06T16:58:16.036Z,27.31
2023-05-06T17:00:42.854Z,27.35
2023-05-06T17:03:09.973Z,27.43
2023-05-06T17:05:37.022Z,27.38
2023-05-06T17:08:04.127Z,27.45
2023-05-06T17:10:30.957Z,27.34
2023-05-06T17:12:57.766Z,27.14
2023-05-06T17:15:25.119Z,26.99
2023-05-06T17:17:52.040Z,26.85
2023-05-06T17:20:20.151Z,26.75
2023-05-06T17:22:47.017Z,26.76
2023-05-06T17:25:13.789Z,24.75
2023-05-06T17:27:40.540Z,24.87
2023-05-06T17:30:09.826Z,23.84
2023-05-06T17:32:36.784Z,24.65
2023-05-06T17:35:03.747Z,25.00
2023-05-06T17:37:31.104Z,24.16
2023-05-06T17:39:58.084Z,23.38
2023-05-06T17:42:24.797Z,23.71
2023-05-06T17:44:51.441Z,24.21
2023-05-06T17:47:18.174Z,24.39
2023-05-06T17:49:45.804Z,24.34
2023-05-06T17:52:12.463Z,24.33
2023-05-06T17:54:39.205Z,24.18
2023-05-06T17:57:05.951Z,24.30
2023-05-06T17:59:32.773Z,24.00
2023-05-06T18:02:00.486Z,23.66
2023-05-06T18:04:27.207Z,23.42
2023-05-06T18:06:53.839Z,21.97
2023-05-06T18:09:20.624Z,22.44
2023-05-06T18:11:47.403Z,22.12
2023-05-06T18:14:14.974Z,22.48
2023-05-06T18:16:42.161Z,22.54
2023-05-06T18:19:08.949Z,22.87
2023-05-06T18:21:36.162Z,23.09
2023-05-06T18:24:15.372Z,23.05
2023-05-06T18:26:44.689Z,23.38
2023-05-06T18:29:12.600Z,23.63
2023-05-06T18:31:39.776Z,23.89
2023-05-06T18:34:06.557Z,23.52
2023-05-06T18:36:35.196Z,23.46
2023-05-06T18:39:02.142Z,23.26
2023-05-06T18:41:28.869Z,22.99
2023-05-06T18:43:55.522Z,23.19
2023-05-06T18:46:22.683Z,23.32
2023-05-06T18:48:49.391Z,23.40
2023-05-06T18:51:17.522Z,23.25
2023-05-06T18:53:45.038Z,23.27
2023-05-06T18:56:12.087Z,23.33
2023-05-06T18:58:39.320Z,23.44
2023-05-06T19:01:09.872Z,23.37
2023-05-06T19:03:37.586Z,23.33
2023-05-06T19:06:05.580Z,23.46
2023-05-06T19:08:32.443Z,23.37
2023-05-06T19:10:59.397Z,23.31
2023-05-06T19:13:26.140Z,23.34
2023-05-06T19:15:52.810Z,23.36
2023-05-06T19:18:19.509Z,23.44
2023-05-06T19:20:46.514Z,23.08
2023-05-06T19:23:13.169Z,23.16
2023-05-06T19:25:40.058Z,23.18
2023-05-06T19:28:06.801Z,23.15
2023-05-06T19:30:34.579Z,23.04
2023-05-06T19:33:02.203Z,22.99
2023-05-06T19:35:29.009Z,22.80
2023-05-06T19:37:56.267Z,22.70
2023-05-06T19:40:22.979Z,22.61
2023-05-06T19:42:49.761Z,22.43
2023-05-06T19:45:17.461Z,22.55
2023-05-06T19:47:45.852Z,22.60
2023-05-06T19:50:13.237Z,22.57
2023-05-06T19:52:40.325Z,22.26
2023-05-06T19:55:07.448Z,22.12
2023-05-06T19:57:34.281Z,22.13
2023-05-06T20:00:05.456Z,22.05
2023-05-06T20:02:33.039Z,22.27
2023-05-06T20:05:00.730Z,22.25
2023-05-06T20:07:27.577Z,22.15
2023-05-06T20:09:56.100Z,22.40
2023-05-06T20:12:30.381Z,22.41
2023-05-06T20:14:57.069Z,22.40
2023-05-06T20:17:23.969Z,22.21
2023-05-06T20:19:50.850Z,22.26
2023-05-06T20:22:17.495Z,22.25
2023-05-06T20:24:44.889Z,22.18
2023-05-06T20:27:11.572Z,22.07
2023-05-06T20:29:38.285Z,22.15
2023-05-06T20:32:05.275Z,22.20
2023-05-06T20:34:32.208Z,22.12
2023-05-06T20:36:59.984Z,22.18
2023-05-06T20:39:26.651Z,22.11
2023-05-06T20:41:53.325Z,22.15
2023-05-06T20:44:19.990Z,22.15
2023-05-06T20:46:46.644Z,22.10
2023-05-06T20:49:13.352Z,22.19
2023-05-06T20:51:39.983Z,22.03
2023-05-06T20:54:06.630Z,22.13
2023-05-06T20:56:33.278Z,22.11
2023-05-06T20:58:59.985Z,21.86
2023-05-06T21:01:27.132Z,21.90
2023-05-06T21:03:54.005Z,21.96
2023-05-06T21:06:20.787Z,21.97
2023-05-06T21:08:47.613Z,21.57
2023-05-06T21:13:41.003Z,21.44
2023-05-06T21:16:08.135Z,21.38
2023-05-06T21:18:35.133Z,21.29
2023-05-06T21:21:02.072Z,21.37
2023-05-06T21:23:28.727Z,21.35
2023-05-06T21:25:55.418Z,21.50
2023-05-06T21:28:22.169Z,21.29
2023-05-06T21:30:48.837Z,21.32
2023-05-06T21:33:15.605Z,21.46
2023-05-06T21:35:42.296Z,21.49
2023-05-06T21:38:08.956Z,21.59
2023-05-06T21:40:35.743Z,21.33
2023-05-06T21:43:02.833Z,20.99
2023-05-06T21:45:29.532Z,21.20
2023-05-06T21:47:56.209Z,21.42
2023-05-06T21:50:22.899Z,21.45
2023-05-06T21:52:49.513Z,20.86
2023-05-06T21:55:16.219Z,20.81
2023-05-06T21:57:44.539Z,21.03
2023-05-06T22:00:12.513Z,21.08
2023-05-06T22:02:40.254Z,21.12
2023-05-06T22:05:08.159Z,21.06
2023-05-06T22:07:35.971Z,21.09
2023-05-06T22:10:03.056Z,20.63
2023-05-06T22:12:30.292Z,20.33
2023-05-06T22:14:57.128Z,20.40
2023-05-06T22:17:24.369Z,20.55
2023-05-06T22:19:51.957Z,20.54
2023-05-06T22:22:19.193Z,20.68
2023-05-06T22:24:46.097Z,20.17
2023-05-06T22:27:12.781Z,20.48
2023-05-06T22:29:39.728Z,20.43
2023-05-06T22:32:06.559Z,20.40
2023-05-06T22:34:33.258Z,20.42
2023-05-06T22:37:00.979Z,20.32
2023-05-06T22:39:28.041Z,20.53
2023-05-06T22:41:54.695Z,20.57
2023-05-06T22:44:21.540Z,20.68
2023-05-06T22:46:48.185Z,20.80
2023-05-06T22:49:16.054Z,20.40
2023-05-06T22:51:42.867Z,20.50
2023-05-06T22:54:09.549Z,20.52
2023-05-06T22:56:36.238Z,20.10
2023-05-06T22:59:03.057Z,20.15
2023-05-06T23:01:32.527Z,19.73
2023-05-06T23:03:59.687Z,19.99
2023-05-06T23:06:31.092Z,19.99
2023-05-06T23:08:58.016Z,19.84
2023-05-06T23:11:24.866Z,19.98
2023-05-06T23:13:51.638Z,20.07
2023-05-06T23:16:18.445Z,20.20
2023-05-06T23:18:45.911Z,20.18
2023-05-06T23:23:47.859Z,19.65
2023-05-06T23:26:14.600Z,19.82
2023-05-06T23:28:41.330Z,20.00
2023-05-06T23:31:08.124Z,20.04
2023-05-06T23:33:34.814Z,19.86
2023-05-06T23:36:02.676Z,19.58
2023-05-06T23:38:30.422Z,19.49
2023-05-06T23:40:57.169Z,19.86
2023-05-06T23:43:23.976Z,19.87
2023-05-06T23:45:50.801Z,18.87
2023-05-06T23:48:17.694Z,19.42
2023-05-06T23:50:44.505Z,19.49
2023-05-06T23:53:11.506Z,19.23
2023-05-06T23:55:38.622Z,19.24
2023-05-06T23:58:05.379Z,19.31
